createdAt,value
2023-05-23T00:02:38.167Z,3.55
2023-05-23T00:07:59.186Z,3.92
2023-05-23T00:13:19.926Z,4.05
2023-05-23T00:18:43.171Z,3.67
2023-05-23T00:24:04.770Z,4.30
2023-05-23T00:29:25.907Z,3.80
2023-05-23T00:34:46.871Z,3.90
2023-05-23T00:40:08.427Z,3.22
2023-05-23T00:45:29.129Z,3.10
2023-05-23T00:50:50.515Z,4.32
2023-05-23T00:56:12.423Z,3.83
2023-05-23T01:01:33.606Z,3.78
2023-05-23T01:06:57.793Z,4.05
2023-05-23T01:12:43.345Z,4.10
2023-05-23T01:18:10.244Z,3.65
2023-05-23T01:24:03.609Z,3.63
2023-05-23T01:29:28.505Z,3.97
2023-05-23T01:34:53.010Z,4.35
2023-05-23T01:40:13.926Z,3.78
2023-05-23T01:45:35.063Z,3.83
2023-05-23T01:50:57.279Z,4.28
2023-05-23T01:56:20.255Z,3.88
2023-05-23T02:01:41.945Z,4.55
2023-05-23T02:07:02.927Z,3.88
2023-05-23T02:12:23.700Z,3.92
2023-05-23T02:17:44.390Z,3.80
2023-05-23T02:23:05.451Z,3.25
2023-05-23T02:28:26.269Z,3.90
2023-05-23T02:33:47.329Z,4.28
2023-05-23T02:39:08.598Z,3.95
2023-05-23T02:44:29.328Z,4.32
2023-05-23T02:49:51.667Z,4.25
2023-05-23T02:55:12.446Z,4.82
2023-05-23T03:00:38.612Z,4.28
2023-05-23T03:06:00.227Z,4.20
2023-05-23T03:11:22.822Z,3.95
2023-05-23T03:16:43.926Z,4.05
2023-05-23T03:22:05.073Z,3.53
2023-05-23T03:27:25.748Z,3.95
2023-05-23T03:32:47.001Z,4.60
2023-05-23T03:38:08.168Z,3.95
2023-05-23T03:43:28.884Z,4.70
2023-05-23T03:48:50.083Z,3.85
2023-05-23T03:54:11.470Z,3.97
2023-05-23T03:59:33.255Z,3.67
2023-05-23T04:04:57.182Z,4.30
2023-05-23T04:10:19.121Z,3.97
2023-05-23T04:15:41.667Z,4.28
2023-05-23T04:21:06.068Z,3.90
2023-05-23T04:26:31.316Z,3.78
2023-05-23T04:31:52.573Z,4.00
2023-05-23T04:37:14.703Z,4.35
2023-05-23T04:42:36.171Z,4.28
2023-05-23T04:48:06.693Z,3.83
2023-05-23T04:53:35.095Z,3.35
2023-05-23T04:58:56.319Z,4.47
2023-05-23T05:04:19.160Z,3.92
2023-05-23T05:09:40.448Z,5.25
2023-05-23T05:15:04.070Z,4.00
2023-05-23T05:20:25.849Z,4.32
2023-05-23T05:25:46.963Z,4.00
2023-05-23T05:31:08.300Z,4.47
2023-05-23T05:36:32.019Z,4.75
2023-05-23T05:41:52.891Z,3.75
2023-05-23T05:47:14.708Z,4.72
2023-05-23T05:52:38.985Z,4.32
2023-05-23T05:58:01.030Z,3.90
2023-05-23T06:03:27.996Z,3.97
2023-05-23T06:08:50.059Z,3.63
2023-05-23T06:14:11.290Z,3.45
2023-05-23T06:19:35.960Z,4.57
2023-05-23T06:24:57.284Z,4.82
2023-05-23T06:30:18.538Z,4.25
2023-05-23T06:35:39.713Z,4.10
2023-05-23T06:41:01.936Z,4.00
2023-05-23T06:46:24.212Z,3.95
2023-05-23T06:51:45.583Z,4.10
2023-05-23T06:57:06.548Z,4.28
2023-05-23T07:02:28.432Z,4.15
2023-05-23T07:07:49.671Z,4.57
2023-05-23T07:13:11.478Z,4.72
2023-05-23T07:18:32.628Z,4.40
2023-05-23T07:23:53.444Z,4.28
2023-05-23T07:29:16.567Z,4.03
2023-05-23T07:34:40.023Z,4.90
2023-05-23T07:40:01.365Z,3.90
2023-05-23T07:45:22.591Z,4.70
2023-05-23T07:50:43.772Z,3.70
2023-05-23T07:56:06.014Z,5.22
2023-05-23T08:01:31.466Z,4.50
2023-05-23T08:07:05.038Z,4.43
2023-05-23T08:12:39.648Z,4.38
2023-05-23T08:18:06.326Z,3.78
2023-05-23T08:23:27.137Z,4.18
2023-05-23T08:28:48.338Z,3.88
2023-05-23T08:34:09.751Z,3.30
2023-05-23T08:39:32.336Z,3.53
2023-05-23T08:45:13.155Z,3.33
2023-05-23T08:50:35.355Z,3.45
2023-05-23T08:55:59.205Z,2.97
2023-05-23T09:01:27.934Z,2.67
2023-05-23T09:06:52.439Z,2.00
2023-05-23T09:12:13.622Z,2.35
2023-05-23T09:17:36.380Z,3.15
2023-05-23T09:22:57.202Z,2.60
2023-05-23T09:28:18.502Z,2.85
2023-05-23T09:33:48.147Z,3.15
2023-05-23T09:39:12.241Z,3.10
2023-05-23T09:44:42.297Z,3.10
2023-05-23T09:50:04.410Z,3.22
2023-05-23T09:55:25.961Z,3.35
2023-05-23T10:00:50.690Z,3.70
2023-05-23T10:06:21.464Z,4.55
2023-05-23T10:12:00.536Z,5.93
2023-05-23T10:17:37.369Z,5.70
2023-05-23T10:23:00.808Z,5.40
2023-05-23T10:28:21.976Z,6.15
2023-05-23T10:33:50.662Z,5.47
2023-05-23T10:39:36.700Z,6.38
2023-05-23T10:45:23.491Z,6.28
2023-05-23T10:50:46.816Z,4.95
2023-05-23T10:56:09.184Z,5.68
2023-05-23T11:01:30.304Z,6.60
2023-05-23T11:06:51.049Z,6.03
2023-05-23T11:12:11.956Z,6.55
2023-05-23T11:17:33.919Z,6.18
2023-05-23T11:22:58.848Z,6.63
2023-05-23T11:28:20.466Z,5.78
2023-05-23T11:33:41.128Z,7.03
2023-05-23T11:39:04.383Z,7.55
2023-05-23T11:44:25.242Z,8.50
2023-05-23T11:49:47.499Z,7.40
2023-05-23T11:55:09.561Z,7.43
2023-05-23T12:00:30.574Z,7.55
2023-05-23T12:05:51.861Z,8.05
2023-05-23T12:11:13.883Z,6.82
2023-05-23T12:16:35.725Z,8.05
2023-05-23T12:21:56.661Z,8.00
2023-05-23T12:27:18.710Z,7.70
2023-05-23T12:32:41.528Z,7.70
2023-05-23T12:38:02.655Z,6.65
2023-05-23T12:43:23.385Z,5.90
2023-05-23T12:48:44.119Z,7.47
2023-05-23T12:54:05.061Z,7.18
2023-05-23T12:59:25.706Z,7.88
2023-05-23T13:04:46.556Z,8.02
2023-05-23T13:10:07.860Z,7.22
2023-05-23T13:15:28.467Z,7.70
2023-05-23T13:20:49.376Z,6.22
2023-05-23T13:26:10.104Z,8.13
2023-05-23T13:31:31.288Z,7.50
2023-05-23T13:36:52.643Z,7.50
2023-05-23T13:42:13.566Z,6.88
2023-05-23T13:47:34.630Z,6.50
2023-05-23T13:52:55.290Z,7.55
2023-05-23T13:58:16.176Z,6.38
2023-05-23T14:03:37.216Z,5.88
2023-05-23T14:08:57.947Z,5.55
2023-05-23T14:14:18.786Z,5.97
2023-05-23T14:19:39.836Z,6.05
2023-05-23T14:25:00.786Z,5.53
2023-05-23T14:30:21.541Z,5.50
2023-05-23T14:35:43.160Z,4.93
2023-05-23T14:41:04.235Z,4.85
2023-05-23T14:46:24.954Z,5.53
2023-05-23T14:51:50.985Z,5.13
2023-05-23T14:57:12.634Z,4.78
2023-05-23T15:02:33.496Z,5.22
2023-05-23T15:07:54.209Z,5.32
2023-05-23T15:13:14.988Z,5.25
2023-05-23T15:18:41.473Z,4.90
2023-05-23T15:24:03.406Z,4.47
2023-05-23T15:29:25.293Z,4.00
2023-05-23T15:34:46.027Z,2.63
2023-05-23T15:40:07.424Z,2.38
2023-05-23T15:45:28.140Z,2.33
2023-05-23T15:50:49.057Z,1.75
2023-05-23T15:56:09.860Z,1.60
2023-05-23T16:01:30.930Z,1.85
2023-05-23T16:06:51.785Z,1.67
2023-05-23T16:12:12.634Z,1.88
2023-05-23T16:17:33.430Z,1.88
2023-05-23T16:22:54.243Z,1.67
2023-05-23T16:28:17.928Z,1.20
2023-05-23T16:33:38.911Z,1.17
2023-05-23T16:38:59.817Z,1.45
2023-05-23T16:44:20.865Z,1.50
2023-05-23T16:49:41.917Z,1.30
2023-05-23T16:55:04.011Z,1.80
2023-05-23T17:00:26.792Z,1.58
2023-05-23T17:05:47.948Z,1.65
2023-05-23T17:11:08.648Z,1.52
2023-05-23T17:16:33.368Z,0.80
2023-05-23T17:21:54.643Z,1.00
2023-05-23T17:27:15.622Z,0.70
2023-05-23T17:32:36.613Z,0.60
2023-05-23T17:37:58.397Z,0.70
2023-05-23T17:43:19.156Z,0.70
2023-05-23T17:54:06.227Z,0.88
2023-05-23T17:59:28.053Z,0.90
2023-05-23T18:04:49.352Z,0.52
2023-05-23T18:10:10.879Z,0.70
2023-05-23T18:15:31.639Z,0.63
2023-05-23T18:20:52.798Z,0.68
2023-05-23T18:26:13.714Z,0.60
2023-05-23T18:31:34.477Z,0.63
2023-05-23T18:36:55.669Z,0.28
2023-05-23T18:42:16.679Z,0.35
2023-05-23T18:47:37.839Z,0.40
2023-05-23T18:52:58.860Z,0.30
2023-05-23T18:58:19.792Z,0.40
2023-05-23T19:03:41.322Z,0.50
2023-05-23T19:09:02.368Z,0.73
2023-05-23T19:14:24.129Z,1.38
2023-05-23T19:19:45.213Z,0.98
2023-05-23T19:25:07.568Z,1.15
2023-05-23T19:30:28.516Z,1.13
2023-05-23T19:35:49.374Z,1.13
2023-05-23T19:41:10.358Z,1.00
2023-05-23T19:46:31.470Z,1.00
2023-05-23T19:51:52.146Z,1.10
2023-05-23T19:57:12.973Z,0.95
2023-05-23T20:02:34.042Z,1.17
2023-05-23T20:07:55.051Z,1.00
2023-05-23T20:13:15.978Z,1.30
2023-05-23T20:18:36.926Z,1.20
2023-05-23T20:23:57.810Z,1.40
2023-05-23T20:29:18.554Z,1.48
2023-05-23T20:34:39.484Z,1.38
2023-05-23T20:40:00.740Z,1.52
2023-05-23T20:45:21.789Z,1.50
2023-05-23T20:50:44.150Z,1.52
2023-05-23T20:56:06.113Z,1.63
2023-05-23T21:01:27.832Z,1.45
2023-05-23T21:06:49.890Z,1.40
2023-05-23T21:12:10.675Z,1.10
2023-05-23T21:17:31.320Z,0.98
2023-05-23T21:22:52.126Z,0.70
2023-05-23T21:28:12.771Z,0.52
2023-05-23T21:33:34.139Z,0.50
2023-05-23T21:38:57.937Z,0.45
2023-05-23T21:44:18.931Z,0.35
2023-05-23T21:49:40.497Z,0.45
2023-05-23T21:55:01.381Z,0.28
2023-05-23T22:00:22.761Z,0.20
2023-05-23T22:05:43.885Z,0.40
2023-05-23T22:11:05.012Z,0.40
2023-05-23T22:16:26.145Z,0.28
2023-05-23T22:21:47.727Z,0.28
2023-05-23T22:27:08.852Z,0.30
2023-05-23T22:32:29.569Z,0.20
2023-05-23T22:37:50.298Z,0.17
2023-05-23T22:43:11.375Z,0.40
2023-05-23T22:48:33.950Z,0.20
2023-05-23T22:53:55.126Z,0.30
2023-05-23T22:59:15.809Z,0.20
2023-05-23T23:04:38.223Z,0.40
2023-05-23T23:09:58.811Z,0.17
2023-05-23T23:15:20.164Z,0.25
2023-05-23T23:20:41.642Z,0.30
2023-05-23T23:26:02.899Z,0.32
2023-05-23T23:31:23.573Z,0.30
2023-05-23T23:36:44.247Z,0.20
2023-05-23T23:42:05.113Z,0.30
2023-05-23T23:47:26.188Z,0.25
2023-05-23T23:52:47.233Z,0.40
2023-05-23T23:58:08.244Z,0.40
